Time;durP1;ratioP1;P1;durP2;ratioP2;P2;SDS_P1;SDS_P2;PMS_P1;PMS_P2;Temp;Humidity;BMP_temperature;BMP_pressure;BME280_temperature;BME280_humidity;BME280_pressure;Samples;Min_cycle;Max_cycle;Signal;HPM_P1;HPM_P2
2022/05/27 00:00:07;;;;;;;22.85;18.57;;;;;;;18.08;100.00;100719.54;1726123;83;21076;-74
2022/05/27 00:02:34;;;;;;;25.85;19.37;;;;;;;17.97;100.00;100723.41;1726343;83;20989;-74
2022/05/27 00:05:02;;;;;;;25.23;18.32;;;;;;;17.90;100.00;100722.99;1726083;82;21057;-74
2022/05/27 00:07:30;;;;;;;24.32;19.35;;;;;;;17.83;100.00;100719.18;1726269;83;21045;-74
2022/05/27 00:09:58;;;;;;;25.85;19.87;;;;;;;17.56;100.00;100714.13;1726534;82;21501;-75
2022/05/27 00:12:25;;;;;;;25.48;19.25;;;;;;;17.50;100.00;100718.44;1726133;82;21073;-74
2022/05/27 00:14:53;;;;;;;24.57;20.08;;;;;;;17.45;100.00;100718.77;1726070;83;21076;-74
2022/05/27 00:17:20;;;;;;;25.05;19.50;;;;;;;17.38;100.00;100715.77;1726112;82;21065;-75
2022/05/27 00:19:48;;;;;;;27.75;20.25;;;;;;;17.27;100.00;100720.04;1726051;82;21044;-74
2022/05/27 00:22:15;;;;;;;27.67;20.72;;;;;;;17.18;100.00;100713.70;1726367;83;21013;-74
2022/05/27 00:24:44;;;;;;;28.92;20.85;;;;;;;17.09;100.00;100710.42;1726149;83;21033;-75
2022/05/27 00:27:11;;;;;;;27.35;20.70;;;;;;;17.00;100.00;100708.81;1726406;83;21073;-75
2022/05/27 00:29:40;;;;;;;30.85;22.25;;;;;;;16.85;100.00;100708.56;1726148;83;21072;-75
2022/05/27 00:32:08;;;;;;;32.67;23.10;;;;;;;16.80;100.00;100706.22;1726050;83;21088;-75
2022/05/27 00:34:35;;;;;;;28.52;21.73;;;;;;;16.81;100.00;100701.91;1726353;83;21080;-75
2022/05/27 00:37:05;;;;;;;29.32;21.75;;;;;;;16.73;100.00;100701.09;1726181;83;21017;-75
2022/05/27 00:39:33;;;;;;;31.30;23.47;;;;;;;16.64;100.00;100702.98;1726480;83;21567;-75
2022/05/27 00:42:03;;;;;;;34.33;23.90;;;;;;;16.55;100.00;100699.23;1725986;83;21045;-75
2022/05/27 00:44:32;;;;;;;33.98;24.00;;;;;;;16.55;100.00;100700.53;1726170;83;21068;-76
2022/05/27 00:47:07;;;;;;;34.00;23.50;;;;;;;16.54;100.00;100699.33;1726129;82;21041;-75
2022/05/27 00:49:41;;;;;;;32.23;23.50;;;;;;;16.46;100.00;100697.23;1726230;83;21044;-75
2022/05/27 00:52:10;;;;;;;;;;;;;;;16.42;100.00;100695.77;1746293;82;21516;-75
2022/05/27 00:54:41;;;;;;;32.58;23.75;;;;;;;16.30;100.00;100695.27;1749329;81;20099;-75
2022/05/27 00:57:19;;;;;;;36.30;24.87;;;;;;;16.28;100.00;100688.91;1749324;82;21083;-75
2022/05/27 00:59:53;;;;;;;30.85;22.82;;;;;;;16.22;100.00;100691.42;1749421;82;21043;-76
2022/05/27 01:02:21;;;;;;;32.98;24.25;;;;;;;16.15;100.00;100690.61;1749585;82;21074;-75
2022/05/27 01:04:50;;;;;;;30.70;23.00;;;;;;;16.08;100.00;100693.22;1749390;82;21059;-75
2022/05/27 01:07:18;;;;;;;34.80;24.10;;;;;;;16.06;100.00;100689.45;1749662;82;21020;-76
2022/05/27 01:09:49;;;;;;;32.65;25.05;;;;;;;16.02;100.00;100696.59;1749379;82;21032;-75
2022/05/27 01:12:44;;;;;;;34.23;23.83;;;;;;;15.99;100.00;100693.36;1749889;82;21019;-76
2022/05/27 01:15:41;;;;;;;31.77;23.40;;;;;;;15.94;100.00;100696.73;1698013;84;21520;-75
2022/05/27 01:22:06;;;;;;;34.33;25.00;;;;;;;15.80;100.00;100691.11;1697960;84;21055;-75
2022/05/27 01:24:48;;;;;;;35.23;24.63;;;;;;;15.77;100.00;100696.47;1698098;84;21051;-75
2022/05/27 01:27:29;;;;;;;35.23;26.33;;;;;;;15.66;100.00;100690.63;1666959;86;21130;-75
2022/05/27 01:30:21;;;;;;;34.35;25.05;;;;;;;15.62;100.00;100691.75;1664844;86;21114;-75
2022/05/27 01:32:57;;;;;;;34.15;24.65;;;;;;;15.60;100.00;100691.84;1639485;87;21046;-75
2022/05/27 01:35:46;;;;;;;36.45;26.15;;;;;;;15.54;100.00;100684.91;1676960;84;21095;-74
2022/05/27 01:38:19;;;;;;;40.58;26.62;;;;;;;15.52;100.00;100686.77;1674462;85;21027;-74
2022/05/27 01:40:51;;;;;;;37.60;26.27;;;;;;;15.49;100.00;100685.20;1674374;85;21070;-75
2022/05/27 01:43:41;;;;;;;35.48;25.55;;;;;;;15.46;100.00;100687.98;1674229;86;21099;-75
2022/05/27 01:46:16;;;;;;;35.60;25.55;;;;;;;15.35;100.00;100683.93;1674161;85;21106;-75
2022/05/27 01:49:18;;;;;;;37.75;26.48;;;;;;;15.39;100.00;100688.00;1674150;86;21551;-74
2022/05/27 01:51:56;;;;;;;39.80;28.05;;;;;;;15.40;100.00;100687.88;1674268;84;21102;-74
2022/05/27 01:54:57;;;;;;;41.50;27.48;;;;;;;15.41;100.00;100686.15;1674283;85;21051;-75
2022/05/27 01:57:49;;;;;;;34.55;25.40;;;;;;;15.42;100.00;100692.52;1674163;85;21054;-74
2022/05/27 02:00:25;;;;;;;36.50;26.05;;;;;;;15.47;100.00;100695.28;1672935;85;21063;-74
2022/05/27 02:03:14;;;;;;;37.63;26.02;;;;;;;15.42;100.00;100696.41;1674102;85;21583;-76
2022/05/27 02:06:15;;;;;;;35.73;25.82;;;;;;;15.36;100.00;100705.86;1659988;86;21035;-75
2022/05/27 02:08:47;;;;;;;36.15;26.33;;;;;;;15.36;100.00;100696.78;1674192;86;21567;-75
2022/05/27 02:11:22;;;;;;;39.38;27.13;;;;;;;15.31;100.00;100706.62;1674321;86;21023;-74
2022/05/27 02:13:58;;;;;;;36.25;25.92;;;;;;;15.19;100.00;100708.66;1674155;85;20999;-75
2022/05/27 02:16:48;;;;;;;38.02;26.10;;;;;;;15.15;100.00;100710.59;1673853;85;21167;-75
2022/05/27 02:19:24;;;;;;;36.03;26.10;;;;;;;15.14;100.00;100705.50;1674208;86;21067;-75
2022/05/27 02:22:02;;;;;;;35.75;26.07;;;;;;;15.18;100.00;100706.51;1674144;85;21058;-74
2022/05/27 02:24:38;;;;;;;37.05;26.70;;;;;;;15.22;100.00;100707.16;1674337;85;21063;-74
2022/05/27 02:27:10;;;;;;;37.40;27.00;;;;;;;15.21;100.00;100702.45;1674224;85;21563;-74
2022/05/27 02:29:39;;;;;;;38.98;26.48;;;;;;;15.21;100.00;100698.55;1674294;86;21035;-75
2022/05/27 02:32:15;;;;;;;39.03;26.85;;;;;;;15.22;100.00;100698.09;1673940;86;21084;-75
2022/05/27 02:35:07;;;;;;;37.63;26.73;;;;;;;15.21;100.00;100701.15;1690512;84;21122;-74
2022/05/27 02:37:53;;;;;;;38.85;26.93;;;;;;;15.23;100.00;100699.77;1710858;84;21051;-74
2022/05/27 02:40:25;;;;;;;40.33;27.45;;;;;;;15.26;100.00;100706.05;1679149;85;21054;-74
2022/05/27 02:43:25;;;;;;;36.20;26.30;;;;;;;15.24;100.00;100707.91;1679182;84;21106;-74
2022/05/27 02:46:02;;;;;;;38.75;25.88;;;;;;;15.22;100.00;100720.12;1651604;85;21537;-74
2022/05/27 02:48:37;;;;;;;40.17;26.52;;;;;;;15.27;100.00;100717.25;1679364;85;21108;-74
2022/05/27 02:51:35;;;;;;;39.63;26.97;;;;;;;15.30;100.00;100721.80;1679595;85;21570;-74
2022/05/27 02:54:32;;;;;;;38.33;27.05;;;;;;;15.35;100.00;100713.29;1679366;85;21038;-75
2022/05/27 02:57:23;;;;;;;37.38;25.68;;;;;;;15.37;100.00;100717.91;1679158;85;21116;-74
2022/05/27 02:59:53;;;;;;;37.60;27.17;;;;;;;15.36;100.00;100725.31;1679419;85;21040;-74
2022/05/27 03:02:20;;;;;;;37.25;25.02;;;;;;;15.40;100.00;100725.50;1679131;85;21018;-74
2022/05/27 03:04:54;;;;;;;35.60;25.85;;;;;;;15.47;100.00;100718.20;1679064;84;21062;-74
2022/05/27 03:07:49;;;;;;;37.15;25.57;;;;;;;15.55;100.00;100720.30;1679332;84;20998;-74
2022/05/27 03:10:54;;;;;;;34.85;25.50;;;;;;;15.57;100.00;100718.00;1679277;85;21050;-74
2022/05/27 03:13:47;;;;;;;35.73;24.95;;;;;;;15.65;100.00;100713.61;1660552;86;21075;-74
2022/05/27 03:16:34;;;;;;;33.63;24.45;;;;;;;15.72;100.00;100719.27;1677244;85;21594;-74
2022/05/27 03:19:25;;;;;;;34.75;24.72;;;;;;;15.77;100.00;100714.64;1710888;84;21039;-74
2022/05/27 03:22:00;;;;;;;32.65;23.38;;;;;;;15.90;100.00;100712.95;1679197;85;22205;-73
2022/05/27 03:24:44;;;;;;;32.50;22.52;;;;;;;15.93;100.00;100722.30;1662223;86;21059;-74
2022/05/27 03:27:38;;;;;;;28.38;21.12;;;;;;;15.97;100.00;100720.71;1677723;85;21015;-74
2022/05/27 03:30:15;;;;;;;29.37;21.60;;;;;;;16.11;100.00;100720.31;1651738;85;21116;-74
2022/05/27 03:32:50;;;;;;;28.50;20.45;;;;;;;16.17;100.00;100730.30;1679215;85;21025;-73
2022/05/27 03:35:29;;;;;;;30.45;20.90;;;;;;;16.08;100.00;100729.14;1670103;85;21054;-74
2022/05/27 03:38:16;;;;;;;29.18;20.35;;;;;;;16.32;100.00;100724.58;1666420;84;21066;-73
2022/05/27 03:40:57;;;;;;;24.12;18.92;;;;;;;16.03;100.00;100728.11;1666140;86;21011;-74
2022/05/27 03:43:27;;;;;;;26.48;19.32;;;;;;;16.29;100.00;100725.62;1666901;85;21006;-73
2022/05/27 03:45:58;;;;;;;23.85;18.50;;;;;;;16.51;100.00;100725.53;1666285;85;21113;-73
2022/05/27 03:48:30;;;;;;;23.32;18.23;;;;;;;16.58;100.00;100722.41;1698101;84;21059;-73
2022/05/27 03:51:20;;;;;;;25.85;18.62;;;;;;;16.33;100.00;100729.69;1666603;86;21095;-74
2022/05/27 03:54:05;;;;;;;23.65;17.55;;;;;;;16.66;100.00;100731.00;1664696;86;21019;-73
2022/05/27 03:56:37;;;;;;;22.60;17.85;;;;;;;16.79;100.00;100740.14;1639258;86;21128;-73
2022/05/27 03:59:06;;;;;;;23.10;17.52;;;;;;;16.91;100.00;100727.66;1698121;84;21050;-74
2022/05/27 04:01:36;;;;;;;26.45;17.50;;;;;;;16.61;100.00;100733.91;1666671;85;21546;-74
2022/05/27 04:04:08;;;;;;;23.00;17.10;;;;;;;16.76;100.00;100733.36;1664731;86;21157;-73
2022/05/27 04:06:35;;;;;;;21.23;14.87;;;;;;;16.81;100.00;100721.41;1639422;87;21104;-74
2022/05/27 04:09:04;;;;;;;18.07;14.53;;;;;;;16.94;100.00;100718.81;1698027;84;21043;-73
2022/05/27 04:11:32;;;;;;;17.48;14.23;;;;;;;16.91;100.00;100723.75;1697848;84;21055;-73
2022/05/27 04:14:00;;;;;;;18.55;13.68;;;;;;;17.09;100.00;100724.73;1697924;84;21543;-73
2022/05/27 04:16:28;;;;;;;17.07;13.38;;;;;;;17.60;100.00;100724.69;1698015;84;21109;-74
2022/05/27 04:18:55;;;;;;;15.18;12.80;;;;;;;17.73;100.00;100726.77;1697966;84;21007;-73
2022/05/27 04:21:23;;;;;;;23.00;11.90;;;;;;;17.37;100.00;100728.40;1697974;84;21532;-75
2022/05/27 04:23:51;;;;;;;15.75;12.05;;;;;;;17.33;100.00;100726.13;1698442;84;21070;-73
2022/05/27 04:26:19;;;;;;;14.70;11.35;;;;;;;17.40;100.00;100728.67;1698020;84;21011;-73
2022/05/27 04:28:47;;;;;;;12.10;10.25;;;;;;;17.47;100.00;100731.20;1698112;84;21047;-73
2022/05/27 04:31:15;;;;;;;12.95;10.65;;;;;;;17.50;100.00;100734.05;1698087;84;21051;-73
2022/05/27 04:33:44;;;;;;;14.55;10.65;;;;;;;17.55;100.00;100723.69;1697930;84;21111;-73
2022/05/27 04:36:15;;;;;;;13.40;10.75;;;;;;;17.70;100.00;100727.01;1665894;84;21059;-73
2022/05/27 04:38:42;;;;;;;12.50;10.50;;;;;;;17.81;100.00;100725.76;1620051;87;21053;-73
2022/05/27 04:41:09;;;;;;;13.85;10.20;;;;;;;17.78;100.00;100724.69;1676751;85;21050;-74
2022/05/27 04:43:38;;;;;;;13.68;10.05;;;;;;;18.04;100.00;100722.01;1676578;85;21050;-73
2022/05/27 04:46:05;;;;;;;11.85;9.55;;;;;;;18.11;100.00;100716.73;1676482;85;21047;-73
2022/05/27 04:48:33;;;;;;;10.38;8.93;;;;;;;18.25;100.00;100718.78;1676880;85;21523;-74
2022/05/27 04:51:00;;;;;;;13.32;9.98;;;;;;;18.31;100.00;100726.16;1676676;85;21064;-74
2022/05/27 04:53:27;;;;;;;10.48;8.35;;;;;;;18.42;100.00;100723.12;1676820;85;21063;-74
2022/05/27 04:55:54;;;;;;;11.53;8.68;;;;;;;18.61;100.00;100725.22;1676703;85;21089;-74
2022/05/27 04:58:21;;;;;;;12.82;9.20;;;;;;;17.89;100.00;100725.25;1677007;86;21560;-73
2022/05/27 05:00:49;;;;;;;9.65;8.18;;;;;;;17.77;100.00;100728.22;1676682;85;21103;-73
2022/05/27 05:03:17;;;;;;;8.35;7.40;;;;;;;18.71;100.00;100727.12;1680301;85;21092;-74
2022/05/27 05:05:45;;;;;;;9.43;7.08;;;;;;;17.92;100.00;100721.11;1676879;85;21055;-73
2022/05/27 05:08:33;;;;;;;9.85;7.40;;;;;;;17.93;100.00;100728.47;1676719;85;21089;-73
2022/05/27 05:11:02;;;;;;;10.05;6.12;;;;;;;18.98;100.00;100721.66;1677039;85;21023;-73
2022/05/27 05:13:31;;;;;;;11.43;6.35;;;;;;;19.55;100.00;100715.95;1676820;86;21051;-72
2022/05/27 05:15:59;;;;;;;8.58;6.20;;;;;;;19.54;100.00;100723.42;1676784;85;21086;-72
2022/05/27 05:18:28;;;;;;;8.05;6.75;;;;;;;19.59;100.00;100713.46;1676878;86;21076;-72
2022/05/27 05:20:56;;;;;;;8.83;6.60;;;;;;;19.68;100.00;100712.72;1676748;84;21086;-73
2022/05/27 05:23:23;;;;;;;7.70;5.97;;;;;;;19.81;100.00;100716.06;1676714;84;21250;-73
2022/05/27 05:25:50;;;;;;;8.00;5.22;;;;;;;19.95;100.00;100721.95;1676711;85;21058;-73
2022/05/27 05:28:18;;;;;;;5.67;4.87;;;;;;;19.88;100.00;100722.09;1702195;84;21035;-73
2022/05/27 05:30:45;;;;;;;6.25;5.00;;;;;;;20.09;100.00;100709.08;1704899;84;21535;-72
2022/05/27 05:33:13;;;;;;;6.83;4.75;;;;;;;20.35;100.00;100706.47;1704560;84;21091;-73
2022/05/27 05:35:41;;;;;;;5.40;4.90;;;;;;;20.64;100.00;100709.83;1704583;84;21047;-73
2022/05/27 05:38:09;;;;;;;8.03;4.65;;;;;;;20.23;100.00;100706.66;1720170;83;21100;-73
2022/05/27 05:40:38;;;;;;;7.10;4.50;;;;;;;19.70;100.00;100707.38;1726104;83;21080;-73
2022/05/27 05:43:06;;;;;;;6.20;4.10;;;;;;;19.76;100.00;100705.62;1726337;83;21060;-72
2022/05/27 05:45:33;;;;;;;6.33;4.05;;;;;;;19.88;100.00;100711.16;1726036;83;21033;-73
2022/05/27 05:48:02;;;;;;;6.67;3.90;;;;;;;20.12;100.00;100714.89;1726302;82;21045;-73
2022/05/27 05:50:29;;;;;;;5.60;3.85;;;;;;;20.56;100.00;100705.19;1726212;82;21044;-73
2022/05/27 05:52:56;;;;;;;4.72;3.60;;;;;;;20.43;100.00;100703.72;1726168;82;21527;-72
2022/05/27 05:55:25;;;;;;;6.35;3.52;;;;;;;20.49;99.87;100711.05;1726438;82;21031;-73
2022/05/27 05:57:53;;;;;;;9.10;3.50;;;;;;;20.68;100.00;100706.45;1725991;83;21087;-74
2022/05/27 06:00:25;;;;;;;4.33;3.15;;;;;;;21.58;93.19;100700.55;1703632;83;21129;-75
2022/05/27 06:02:53;;;;;;;5.20;3.20;;;;;;;21.66;88.83;100703.81;1726275;83;21046;-74
2022/05/27 06:05:23;;;;;;;3.62;3.10;;;;;;;21.81;87.48;100698.02;1726202;83;21099;-73
2022/05/27 06:07:52;;;;;;;4.05;3.00;;;;;;;21.89;83.90;100697.84;1726156;83;21019;-73
2022/05/27 06:10:20;;;;;;;5.28;2.92;;;;;;;22.05;84.38;100700.73;1726796;82;21079;-73
2022/05/27 06:12:48;;;;;;;4.58;3.25;;;;;;;22.10;84.28;100706.41;1694573;84;21050;-72
2022/05/27 06:15:16;;;;;;;4.70;2.85;;;;;;;22.10;81.89;100698.55;1694319;85;21018;-73
2022/05/27 06:17:45;;;;;;;3.33;3.00;;;;;;;22.24;81.75;100699.93;1695758;84;21083;-74
2022/05/27 06:20:12;;;;;;;6.42;3.00;;;;;;;22.42;81.19;100695.31;1736353;82;21567;-73
2022/05/27 06:22:39;;;;;;;5.67;3.37;;;;;;;22.50;82.37;100692.81;1738096;82;21016;-73
2022/05/27 06:25:07;;;;;;;7.08;3.37;;;;;;;22.56;82.53;100687.00;1736505;82;21043;-73
2022/05/27 06:27:35;;;;;;;5.87;3.40;;;;;;;22.63;81.17;100689.88;1735337;82;21035;-73
2022/05/27 06:35:26;;;;;;;3.77;2.80;;;;;;;23.00;80.68;100697.30;1695726;84;21008;-73
2022/05/27 06:37:53;;;;;;;5.37;3.12;;;;;;;23.04;79.39;100693.94;1736543;82;21055;-73
2022/05/27 06:40:22;;;;;;;5.33;3.10;;;;;;;23.02;77.49;100691.95;1735052;82;21025;-74
2022/05/27 06:42:51;;;;;;;4.00;2.98;;;;;;;23.13;77.82;100688.30;1736961;82;21465;-73
2022/05/27 06:45:18;;;;;;;5.92;2.70;;;;;;;23.42;76.90;100693.43;1732789;82;21568;-74
2022/05/27 06:47:46;;;;;;;7.90;2.90;;;;;;;23.53;75.86;100696.33;1732674;82;21054;-73
2022/05/27 06:50:14;;;;;;;5.15;2.75;;;;;;;23.59;76.06;100691.80;1703852;84;21479;-74
2022/05/27 06:52:42;;;;;;;3.50;2.67;;;;;;;23.83;74.84;100694.38;1695987;84;21010;-73
2022/05/27 06:55:14;;;;;;;4.95;2.80;;;;;;;23.99;73.83;100701.11;1702413;84;20999;-74
2022/05/27 06:57:41;;;;;;;6.87;3.00;;;;;;;24.05;73.07;100699.66;1702354;84;21015;-74
2022/05/27 07:00:11;;;;;;;5.25;2.40;;;;;;;24.06;73.06;100696.06;1677266;85;21048;-74
2022/05/27 07:02:38;;;;;;;4.87;2.52;;;;;;;24.20;73.37;100693.72;1702519;84;21038;-74
2022/05/27 07:05:07;;;;;;;3.37;2.70;;;;;;;24.11;70.84;100709.60;1669506;85;21133;-74
2022/05/27 07:07:35;;;;;;;2.87;2.30;;;;;;;24.22;70.55;100707.22;1694616;85;21062;-73
2022/05/27 07:10:04;;;;;;;3.62;2.35;;;;;;;24.15;66.57;100710.95;1695260;83;21455;-74
2022/05/27 07:12:31;;;;;;;6.65;2.52;;;;;;;24.40;68.11;100710.66;1701962;83;21078;-75
2022/05/27 07:15:00;;;;;;;4.97;2.67;;;;;;;24.38;66.33;100711.30;1726275;83;21015;-74
2022/05/27 07:17:28;;;;;;;3.15;2.30;;;;;;;24.25;66.85;100725.31;1730575;82;21491;-74
2022/05/27 07:19:55;;;;;;;3.55;2.20;;;;;;;24.39;66.25;100720.83;1735564;82;21004;-74
2022/05/27 07:22:22;;;;;;;2.45;2.25;;;;;;;24.45;67.23;100708.37;1735867;82;21012;-74
2022/05/27 07:24:50;;;;;;;4.28;2.70;;;;;;;24.47;67.22;100715.63;1749884;81;21035;-74
2022/05/27 07:27:17;;;;;;;4.65;2.40;;;;;;;24.48;66.88;100712.03;1747891;82;21039;-73
2022/05/27 07:29:45;;;;;;;4.42;2.70;;;;;;;24.85;66.47;100718.87;1694300;84;21050;-73
2022/05/27 07:32:12;;;;;;;4.80;2.50;;;;;;;24.65;66.17;100714.80;1693765;84;21054;-74
2022/05/27 07:34:41;;;;;;;5.05;2.50;;;;;;;24.33;67.08;100720.12;1693590;85;21090;-74
2022/05/27 07:37:08;;;;;;;3.30;2.50;;;;;;;24.73;68.09;100710.91;1704285;83;21018;-73
2022/05/27 07:39:35;;;;;;;3.85;2.50;;;;;;;25.01;66.54;100720.78;1748746;82;21107;-73
2022/05/27 07:42:04;;;;;;;5.50;2.92;;;;;;;24.96;67.94;100713.86;1748824;82;21055;-73
2022/05/27 07:44:31;;;;;;;5.87;2.20;;;;;;;24.73;68.36;100722.75;1748811;82;21023;-73
2022/05/27 07:46:58;;;;;;;4.65;2.35;;;;;;;24.75;64.93;100736.59;1748892;82;21331;-74
2022/05/27 07:49:26;;;;;;;2.75;2.42;;;;;;;24.44;64.98;100738.31;1748608;82;21055;-73
2022/05/27 07:51:53;;;;;;;3.35;2.70;;;;;;;24.65;65.13;100722.70;1748784;82;21023;-73
2022/05/27 07:54:21;;;;;;;4.58;2.30;;;;;;;24.82;66.02;100729.73;1744099;82;21070;-73
2022/05/27 07:56:48;;;;;;;6.28;2.65;;;;;;;25.06;65.90;100734.79;1669675;85;21038;-73
2022/05/27 07:59:15;;;;;;;5.72;2.62;;;;;;;25.02;63.49;100727.72;1693610;85;21050;-74
2022/05/27 08:01:43;;;;;;;4.70;2.50;;;;;;;24.98;64.19;100722.42;1693808;84;21003;-73
2022/05/27 08:04:11;;;;;;;3.42;2.50;;;;;;;24.93;64.90;100733.41;1702905;84;20999;-74
2022/05/27 08:06:40;;;;;;;2.33;1.90;;;;;;;24.17;65.91;100722.97;1748987;82;21051;-74
2022/05/27 08:09:07;;;;;;;2.20;1.90;;;;;;;24.35;63.35;100716.84;1740476;82;21073;-73
2022/05/27 08:11:34;;;;;;;2.65;1.87;;;;;;;24.47;63.52;100713.48;1729190;82;21054;-74
2022/05/27 08:14:02;;;;;;;4.25;1.92;;;;;;;24.20;62.00;100709.50;1734356;82;21091;-74
2022/05/27 08:16:32;;;;;;;3.98;1.87;;;;;;;24.28;61.40;100709.24;1730168;82;21032;-74
2022/05/27 08:19:00;;;;;;;1.60;1.50;;;;;;;24.50;61.92;100697.44;1729981;82;21044;-74
2022/05/27 08:21:27;;;;;;;3.52;1.80;;;;;;;24.55;60.45;100693.84;1734320;82;21043;-73
2022/05/27 08:23:54;;;;;;;2.17;1.60;;;;;;;24.72;59.12;100698.74;1726381;82;21004;-74
2022/05/27 08:26:21;;;;;;;4.10;1.92;;;;;;;24.61;57.08;100701.13;1733331;82;21628;-74
2022/05/27 08:28:48;;;;;;;4.03;1.80;;;;;;;24.57;57.50;100692.73;1731979;82;21015;-74
2022/05/27 08:31:16;;;;;;;2.95;1.87;;;;;;;24.80;56.54;100706.69;1735311;81;21086;-74
2022/05/27 08:39:15;;;;;;;2.02;1.62;;;;;;;24.61;56.18;100702.94;1736492;82;21072;-74
2022/05/27 08:42:06;;;;;;;2.45;1.62;;;;;;;24.61;56.29;100701.13;1742908;82;21596;-74
2022/05/27 08:45:14;;;;;;;2.65;1.60;;;;;;;24.47;55.07;100697.20;1756807;82;21028;-73
2022/05/27 08:47:52;;;;;;;1.77;1.40;;;;;;;24.62;54.70;100709.36;1743247;82;21004;-74
2022/05/27 08:50:25;;;;;;;3.67;1.50;;;;;;;25.55;53.54;100700.78;1726395;83;21548;-73
2022/05/27 08:53:20;;;;;;;6.00;1.72;;;;;;;25.52;53.07;100688.73;1727042;83;21540;-74
2022/05/27 08:59:40;;;;;;;3.00;1.65;;;;;;;25.48;54.40;100707.67;1699455;84;21040;-76
2022/05/27 09:01:23;;;;;;;4.42;1.67;;;;;;;25.54;53.32;100696.48;1695700;83;21006;-72
2022/05/27 09:04:20;;;;;;;2.95;1.87;;;;;;;25.55;53.06;100702.11;1697380;84;20999;-72
2022/05/27 09:07:04;;;;;;;3.27;1.50;;;;;;;25.44;52.01;100698.43;1676601;85;21032;-73
2022/05/27 09:09:32;;;;;;;2.00;1.80;;;;;;;25.68;52.31;100694.53;1730322;82;21036;-72
2022/05/27 09:12:27;;;;;;;1.90;1.60;;;;;;;25.69;53.82;100692.72;1750158;82;21035;-76
2022/05/27 09:15:34;;;;;;;4.78;1.50;;;;;;;25.66;53.61;100704.92;1749899;81;21224;-74
2022/05/27 09:18:16;;;;;;;3.00;1.67;;;;;;;25.68;53.14;100687.95;1749389;82;21266;-73
2022/05/27 09:21:04;;;;;;;5.35;1.70;;;;;;;26.06;52.55;100692.31;1748962;82;21059;-74
2022/05/27 09:23:50;;;;;;;2.77;1.60;;;;;;;26.28;51.04;100686.06;1733488;82;20972;-73
2022/05/27 09:26:49;;;;;;;3.40;1.70;;;;;;;26.28;51.04;100686.06;1749079;82;21507;-73
2022/05/27 09:29:46;;;;;;;3.98;1.60;;;;;;;26.50;50.54;100676.61;1727188;82;21019;-73
2022/05/27 09:32:38;;;;;;;2.58;1.50;;;;;;;26.09;50.38;100701.20;1747758;82;21552;-73
2022/05/27 09:35:13;;;;;;;2.90;1.60;;;;;;;26.48;49.99;100690.47;1742195;82;21059;-73
2022/05/27 09:37:45;;;;;;;1.70;1.52;;;;;;;26.49;51.44;100697.41;1732571;82;21042;-73
2022/05/27 09:40:32;;;;;;;1.98;1.60;;;;;;;26.58;49.47;100692.46;1694579;83;21007;-74
2022/05/27 09:43:29;;;;;;;3.35;1.37;;;;;;;26.84;50.55;100694.06;1694896;84;21046;-75
2022/05/27 09:46:03;;;;;;;3.87;1.70;;;;;;;26.68;50.60;100687.00;1749663;82;21031;-74
2022/05/27 09:48:30;;;;;;;3.10;1.30;;;;;;;26.46;49.00;100704.33;1749319;82;21004;-74
2022/05/27 09:51:04;;;;;;;2.52;1.50;;;;;;;26.67;49.88;100694.61;1749582;82;21468;-74
2022/05/27 09:53:42;;;;;;;3.25;1.70;;;;;;;26.84;48.81;100697.52;1749559;82;21024;-74
2022/05/27 09:56:13;;;;;;;2.42;1.55;;;;;;;26.86;49.47;100691.58;1726808;82;21036;-74
2022/05/27 09:58:44;;;;;;;2.40;1.50;;;;;;;27.01;49.09;100689.55;1726559;82;21071;-74
2022/05/27 10:01:26;;;;;;;3.62;1.32;;;;;;;26.63;49.17;100687.52;1727336;82;21071;-73
2022/05/27 10:04:09;;;;;;;1.50;1.40;;;;;;;26.60;49.98;100693.63;1727141;82;21092;-75
2022/05/27 10:06:37;;;;;;;5.17;1.60;;;;;;;26.75;48.87;100682.70;1727255;82;21160;-75
2022/05/27 10:09:08;;;;;;;2.80;1.52;;;;;;;26.86;47.15;100669.12;1727096;83;21516;-74
2022/05/27 10:11:52;;;;;;;2.35;1.60;;;;;;;26.95;49.04;100684.47;1727269;82;21556;-74
2022/05/27 10:14:33;;;;;;;2.12;1.60;;;;;;;27.09;49.11;100675.83;1727144;83;21027;-74
2022/05/27 10:17:11;;;;;;;4.20;1.40;;;;;;;27.12;48.51;100666.72;1704726;83;21571;-74
2022/05/27 10:19:44;;;;;;;2.08;1.52;;;;;;;27.05;47.38;100664.42;1726107;82;21087;-75
2022/05/27 10:22:25;;;;;;;2.45;1.40;;;;;;;27.11;46.50;100672.52;1727309;83;21547;-75
2022/05/27 10:25:11;;;;;;;2.33;1.32;;;;;;;27.01;46.79;100660.48;1727132;82;21040;-74
2022/05/27 10:27:52;;;;;;;1.67;1.30;;;;;;;27.16;46.23;100655.62;1727189;82;21032;-75
2022/05/27 10:30:29;;;;;;;2.87;1.30;;;;;;;27.37;46.96;100664.33;1704255;83;21799;-74
2022/05/27 10:33:23;;;;;;;3.08;1.40;;;;;;;26.98;45.40;100669.58;1726647;82;21477;-74
2022/05/27 10:35:53;;;;;;;3.00;1.45;;;;;;;27.01;45.79;100656.05;1727008;83;21071;-74
2022/05/27 10:38:35;;;;;;;2.85;1.27;;;;;;;27.35;45.72;100661.03;1703279;83;21005;-75
2022/05/27 10:41:29;;;;;;;1.45;1.20;;;;;;;27.31;45.74;100649.63;1716814;84;21021;-74
2022/05/27 10:44:33;;;;;;;3.02;1.40;;;;;;;27.29;46.72;100639.26;1717171;83;21061;-74
2022/05/27 10:47:00;;;;;;;4.17;1.40;;;;;;;27.70;46.25;100650.89;1716988;84;21053;-75
2022/05/27 10:50:13;;;;;;;2.58;1.20;;;;;;;27.96;44.88;100645.74;1716993;83;21065;-74
2022/05/27 10:53:16;;;;;;;4.75;1.60;;;;;;;28.08;44.54;100650.11;1717613;83;21026;-75
2022/05/27 10:56:02;;;;;;;2.05;1.12;;;;;;;28.15;44.92;100632.02;1717128;83;21503;-74
2022/05/27 11:02:33;;;;;;;4.00;1.40;;;;;;;27.98;46.38;100642.42;1723801;83;21070;-74
2022/05/27 11:05:27;;;;;;;2.55;1.30;;;;;;;27.38;45.51;100636.87;1725183;83;21028;-74
2022/05/27 11:08:18;;;;;;;2.67;1.50;;;;;;;27.90;45.58;100626.61;1725402;83;21098;-73
2022/05/27 11:11:39;;;;;;;4.15;1.40;;;;;;;27.83;44.28;100625.16;1725254;83;21334;-73
2022/05/27 11:17:09;;;;;;;4.47;1.55;;;;;;;28.33;44.99;100622.42;1721124;83;21093;-74
2022/05/27 11:20:04;;;;;;;2.72;1.45;;;;;;;28.19;43.62;100617.94;1719545;83;21045;-74
2022/05/27 11:22:58;;;;;;;2.90;1.40;;;;;;;28.19;44.16;100627.20;1719514;83;21045;-75
2022/05/27 11:25:46;;;;;;;2.60;1.27;;;;;;;28.40;43.64;100615.89;1719894;83;21022;-75
2022/05/27 11:28:40;;;;;;;2.80;1.30;;;;;;;28.22;43.08;100603.50;1719634;83;21486;-75
2022/05/27 11:31:20;;;;;;;4.03;1.55;;;;;;;28.16;42.58;100609.86;1719922;83;21097;-76
2022/05/27 11:34:34;;;;;;;2.77;1.37;;;;;;;28.14;42.81;100612.34;1719666;83;21137;-75
2022/05/27 11:37:25;;;;;;;2.23;1.20;;;;;;;27.81;42.93;100606.50;1724734;83;21098;-75
2022/05/27 11:40:09;;;;;;;1.77;1.50;;;;;;;27.06;44.03;100615.38;1711081;82;21084;-75
2022/05/27 11:43:07;;;;;;;3.42;1.30;;;;;;;27.25;43.87;100598.31;1702431;83;21003;-74
2022/05/27 11:45:35;;;;;;;7.53;1.52;;;;;;;27.89;43.10;100595.88;1702223;84;21008;-75
2022/05/27 11:48:15;;;;;;;3.37;1.42;;;;;;;28.24;43.03;100598.34;1702539;83;21543;-75
2022/05/27 11:51:25;;;;;;;1.72;1.27;;;;;;;28.42;43.46;100609.09;1702281;84;21071;-74
2022/05/27 11:54:08;;;;;;;1.45;1.20;;;;;;;28.58;43.57;100593.05;1702996;83;21071;-74
2022/05/27 11:56:41;;;;;;;1.57;1.12;;;;;;;29.11;43.71;100600.84;1702230;84;21063;-74
2022/05/27 11:59:13;;;;;;;3.35;1.32;;;;;;;28.76;42.17;100605.91;1670833;86;21058;-74
2022/05/27 12:02:01;;;;;;;4.12;1.30;;;;;;;28.72;42.77;100608.11;1671222;85;21020;-74
2022/05/27 12:04:50;;;;;;;2.15;1.32;;;;;;;28.38;41.41;100603.33;1644056;87;21109;-74
2022/05/27 12:07:25;;;;;;;3.75;1.50;;;;;;;28.44;41.34;100603.93;1672659;86;21059;-74
2022/05/27 12:10:15;;;;;;;3.17;1.30;;;;;;;28.59;42.94;100585.91;1673682;86;21075;-74
2022/05/27 12:12:53;;;;;;;2.12;1.20;;;;;;;28.79;40.80;100598.09;1643850;86;21031;-74
2022/05/27 12:15:41;;;;;;;1.27;1.17;;;;;;;28.65;41.11;100590.00;1643718;87;21058;-75
2022/05/27 12:18:13;;;;;;;2.00;1.10;;;;;;;29.19;41.49;100582.17;1670669;85;21079;-74